Weather History for Wrangell, AK

Change the Weather History Date:

Thursday, November 18, 2010

  Actual Average Record
Temperature  
Mean Temperature 30 °F -  
Max Temperature 33 °F 37 °F 52 °F (1952)
Min Temperature 26 °F 29 °F 8 °F (1963)
Degree Days  
Heating Degree Days 36    
Moisture  
Dew Point 4 °F    
Average Humidity 35    
Maximum Humidity 59    
Minimum Humidity 27    
Precipitation  
Precipitation 0.00 in - - ()
Sea Level Pressure  
Sea Level Pressure 30.19 in    
Wind  
Wind Speed 12 mph (ENE)    
Max Wind Speed 20 mph    
Max Gust Speed 28 mph    
Visibility 10 miles    
Events      
Averages and records for this station are not official NWS values.
T = Trace of Precipitation, MM = Missing Value Source: NWS Daily Summary

Daily Weather History Graph

Daily Weather History Graph

Search for Another Location

Airport:

Trip Planner

Search our weather history database for the weather conditions in past years. The results will help you decide how hot, cold, wet, or windy it might be!

Date:

Astronomy

Nov. 18, 2010 Rise Set
Actual Time 7:34 AM AKST 3:33 PM AKST
Civil Twilight 6:51 AM AKST 4:17 PM AKST
Nautical Twilight 6:04 AM AKST 5:04 PM AKST
Astronomical Twilight 5:19 AM AKST 5:48 PM AKST
Moon 1:53 PM AKST (11/18) 4:17 AM AKST (11/18)
Length of Visible Light 9h 26m
Length of Day
7h 58m
Waxing Gibbous, 92% of the Moon is Illuminated
Nov 18
Waxing Gibbous
Nov 21
Full
Nov 28
Last Quarter
Dec 5
New
Dec 13
First Quarter

Hourly Weather History & Observations

Time (AKST) Temp. Windchill Dew Point Humidity Pressure Visibility Wind Dir Wind Speed Gust Speed Precip Events Conditions
12:16 AM 26.6 °F 16.2 °F 1.4 °F 34% 30.09 in 10.0 mi ENE 11.5 mph - N/A   Clear
12:36 AM 26.6 °F 15.2 °F 1.4 °F 34% 30.09 in 10.0 mi East 13.8 mph 20.7 mph N/A   Clear
12:56 AM 28.4 °F 17.5 °F 1.4 °F 31% 30.09 in 10.0 mi ENE 13.8 mph 24.2 mph N/A   Clear
1:16 AM 28.4 °F 17.5 °F 1.4 °F 31% 30.09 in 10.0 mi East 13.8 mph 20.7 mph N/A   Clear
1:36 AM 28.4 °F 17.5 °F -0.4 °F 29% 30.10 in 10.0 mi NE 13.8 mph 21.9 mph N/A   Clear
1:56 AM 28.4 °F 16.6 °F 3.2 °F 34% 30.10 in 10.0 mi ENE 16.1 mph 21.9 mph N/A   Clear
2:16 AM 28.4 °F 18.5 °F 1.4 °F 31% 30.12 in 10.0 mi East 11.5 mph 18.4 mph N/A   Clear
2:36 AM 28.4 °F 17.0 °F 1.4 °F 31% 30.12 in 10.0 mi East 15.0 mph - N/A   Clear
2:56 AM 28.4 °F 18.5 °F -0.4 °F 29% 30.12 in 10.0 mi SE 11.5 mph 18.4 mph N/A   Clear
3:16 AM 28.4 °F 20.4 °F -2.2 °F 27% 30.12 in 10.0 mi SE 8.1 mph 17.3 mph N/A   Clear
3:36 AM 28.4 °F 19.1 °F -0.4 °F 29% 30.14 in 10.0 mi East 10.4 mph 17.3 mph N/A   Clear
3:56 AM 28.4 °F 16.6 °F 3.2 °F 34% 30.15 in 10.0 mi NE 16.1 mph 24.2 mph N/A   Clear
4:16 AM 28.4 °F 16.6 °F 3.2 °F 34% 30.15 in 10.0 mi ENE 16.1 mph 27.6 mph N/A   Clear
4:36 AM 28.4 °F 18.5 °F 1.4 °F 31% 30.17 in 10.0 mi NE 11.5 mph - N/A   Clear
4:56 AM 28.4 °F 23.3 °F -2.2 °F 27% 30.19 in 10.0 mi East 4.6 mph - N/A   Clear
5:16 AM 28.4 °F 19.7 °F -2.2 °F 27% 30.20 in 10.0 mi NNE 9.2 mph - N/A   Clear
5:36 AM 28.4 °F 20.4 °F -2.2 °F 27% 30.20 in 10.0 mi NE 8.1 mph - N/A   Clear
5:56 AM 28.4 °F 20.4 °F -2.2 °F 27% 30.22 in 10.0 mi NE 8.1 mph - N/A   Clear
6:16 AM 28.4 °F 18.5 °F -2.2 °F 27% 30.22 in 10.0 mi ENE 11.5 mph - N/A   Clear
6:36 AM 28.4 °F 18.0 °F -2.2 °F 27% 30.22 in 10.0 mi East 12.7 mph - N/A   Clear
6:56 AM 28.4 °F 17.0 °F -0.4 °F 29% 30.23 in 10.0 mi East 15.0 mph - N/A   Clear
7:16 AM 28.4 °F 16.6 °F 1.4 °F 31% 30.23 in 10.0 mi East 16.1 mph 24.2 mph N/A   Clear
7:36 AM 28.4 °F 18.5 °F -0.4 °F 29% 30.23 in 10.0 mi East 11.5 mph 17.3 mph N/A   Clear
7:56 AM 28.4 °F 17.0 °F 1.4 °F 31% 30.23 in 10.0 mi ESE 15.0 mph 19.6 mph N/A   Clear
8:16 AM 28.4 °F 17.0 °F -0.4 °F 29% 30.24 in 10.0 mi ESE 15.0 mph 18.4 mph N/A   Clear
8:36 AM 28.4 °F 18.5 °F -0.4 °F 29% 30.25 in 10.0 mi East 11.5 mph 19.6 mph N/A   Clear
8:56 AM 28.4 °F 16.2 °F -0.4 °F 29% 30.24 in 10.0 mi East 17.3 mph 21.9 mph N/A   Clear
9:16 AM 28.4 °F 16.2 °F -0.4 °F 29% 30.23 in 10.0 mi East 17.3 mph - N/A   Clear
9:36 AM 30.2 °F 19.8 °F 3.2 °F 32% 30.24 in 10.0 mi East 13.8 mph 18.4 mph N/A   Clear
9:56 AM 30.2 °F 19.8 °F 3.2 °F 32% 30.25 in 10.0 mi ENE 13.8 mph - N/A   Clear
10:16 AM 30.2 °F 17.8 °F 1.4 °F 29% 30.24 in 10.0 mi East 19.6 mph 24.2 mph N/A   Clear
10:36 AM 32.0 °F 21.2 °F 3.2 °F 30% 30.23 in 10.0 mi East 16.1 mph 20.7 mph N/A   Clear
10:56 AM 32.0 °F 20.8 °F 3.2 °F 30% 30.23 in 10.0 mi East 17.3 mph - N/A   Clear
11:16 AM 33.8 °F 25.8 °F 3.2 °F 28% 30.25 in 10.0 mi NNE 10.4 mph - N/A   Clear
11:36 AM 30.2 °F 23.4 °F 3.2 °F 32% 30.24 in 10.0 mi NW 6.9 mph - N/A   Clear
11:56 AM 30.2 °F - 3.2 °F 32% 30.23 in 10.0 mi Calm Calm - N/A   Clear
12:16 PM 30.2 °F 26.7 °F 3.2 °F 32% 30.23 in 10.0 mi West 3.5 mph - N/A   Clear
12:36 PM 32.0 °F 23.6 °F 6.8 °F 35% 30.22 in 10.0 mi NW 10.4 mph - N/A   Clear
12:56 PM 30.2 °F 21.9 °F 6.8 °F 37% 30.22 in 10.0 mi NNW 9.2 mph - N/A   Clear
1:16 PM 30.2 °F 21.9 °F 6.8 °F 37% 30.22 in 10.0 mi NW 9.2 mph - N/A   Clear
1:36 PM 30.2 °F 22.6 °F 6.8 °F 37% 30.22 in 10.0 mi WNW 8.1 mph - N/A   Clear
1:56 PM 30.2 °F 25.4 °F 5.0 °F 34% 30.21 in 10.0 mi WSW 4.6 mph - N/A   Clear
2:16 PM 30.2 °F 25.4 °F 8.6 °F 40% 30.21 in 10.0 mi South 4.6 mph - N/A   Clear
2:36 PM 30.2 °F 25.4 °F 6.8 °F 37% 30.21 in 10.0 mi SSW 4.6 mph - N/A   Clear
2:56 PM 30.2 °F 25.4 °F 6.8 °F 37% 30.21 in 10.0 mi SSW 4.6 mph - N/A   Clear
3:16 PM 28.4 °F 24.6 °F 8.6 °F 43% 30.21 in 10.0 mi WSW 3.5 mph - N/A   Clear
3:36 PM 28.4 °F 22.2 °F 8.6 °F 43% 30.21 in 10.0 mi NNW 5.8 mph - N/A   Clear
3:56 PM 30.2 °F 23.4 °F 10.4 °F 44% 30.20 in 10.0 mi NNW 6.9 mph - N/A   Clear
4:16 PM 26.6 °F 18.2 °F 12.2 °F 55% 30.20 in 10.0 mi WNW 8.1 mph 17.3 mph N/A   Clear
4:36 PM 28.4 °F 19.7 °F 10.4 °F 47% 30.20 in 10.0 mi NW 9.2 mph - N/A   Clear
4:56 PM 26.6 °F 18.2 °F 12.2 °F 55% 30.20 in 10.0 mi WNW 8.1 mph - N/A   Clear
5:16 PM 28.4 °F 20.4 °F 12.2 °F 51% 30.20 in 10.0 mi West 8.1 mph - N/A   Clear
5:36 PM 26.6 °F 18.2 °F 12.2 °F 55% 30.20 in 10.0 mi WSW 8.1 mph - N/A   Clear
5:56 PM 26.6 °F 16.2 °F 12.2 °F 55% 30.20 in 10.0 mi WNW 11.5 mph - N/A   Clear
6:16 PM 26.6 °F 17.5 °F 14.0 °F 59% 30.20 in 10.0 mi NW 9.2 mph - N/A   Clear
6:36 PM 26.6 °F 16.8 °F 15.8 °F 64% 30.20 in 10.0 mi West 10.4 mph - N/A   Clear
6:56 PM 26.6 °F 16.8 °F 12.2 °F 55% 30.20 in 10.0 mi West 10.4 mph - N/A   Clear
7:16 PM 28.4 °F 19.7 °F 12.2 °F 51% 30.20 in 10.0 mi West 9.2 mph - N/A   Clear
7:36 PM 26.6 °F 20.0 °F 12.2 °F 55% 30.21 in 10.0 mi West 5.8 mph - N/A   Clear
7:56 PM 26.6 °F 17.5 °F 12.2 °F 55% 30.21 in 10.0 mi NNW 9.2 mph - N/A   Clear
8:16 PM 26.6 °F 15.7 °F 12.2 °F 55% 30.21 in 10.0 mi NNW 12.7 mph - N/A   Clear
8:36 PM 28.4 °F 21.2 °F 15.8 °F 59% 30.21 in 10.0 mi NW 6.9 mph - N/A   Clear
8:56 PM 26.6 °F 16.8 °F 14.0 °F 59% 30.21 in 9.0 mi NW 10.4 mph - N/A   Clear
9:16 PM 26.6 °F 17.5 °F 14.0 °F 59% 30.21 in 9.0 mi WNW 9.2 mph - N/A   Clear
9:36 PM 26.6 °F 19.1 °F 12.2 °F 55% 30.21 in 9.0 mi WNW 6.9 mph - N/A   Clear
9:56 PM 26.6 °F 19.1 °F 12.2 °F 55% 30.21 in 9.0 mi NW 6.9 mph - N/A   Clear
10:16 PM 28.4 °F 21.2 °F 14.0 °F 55% 30.21 in 9.0 mi NNW 6.9 mph - N/A   Clear
10:36 PM 28.4 °F 22.2 °F 14.0 °F 55% 30.21 in 9.0 mi WNW 5.8 mph - N/A   Clear
10:56 PM 26.6 °F 16.8 °F 14.0 °F 59% 30.22 in 9.0 mi NW 10.4 mph - N/A   Clear
11:16 PM 26.6 °F 17.5 °F 15.8 °F 64% 30.22 in 10.0 mi WNW 9.2 mph - N/A   Clear
11:36 PM 26.6 °F 20.0 °F 12.2 °F 55% 30.22 in 10.0 mi WSW 5.8 mph - N/A   Clear
11:56 PM 24.8 °F 17.9 °F 12.2 °F 59% 30.23 in 10.0 mi WSW 5.8 mph - N/A   Clear